sensor_id;sensor_type;location;lat;lon;timestamp;temperature;humidity
75865;HTU21D;64510;46.704;38.274;2023-06-22T00:01:28;20.85;73.25
75865;HTU21D;64510;46.704;38.274;2023-06-22T00:03:54;20.83;73.52
75865;HTU21D;64510;46.704;38.274;2023-06-22T00:06:20;20.78;73.61
75865;HTU21D;64510;46.704;38.274;2023-06-22T00:08:46;20.71;73.73
75865;HTU21D;64510;46.704;38.274;2023-06-22T00:11:12;20.70;73.96
75865;HTU21D;64510;46.704;38.274;2023-06-22T00:13:39;20.63;73.77
75865;HTU21D;64510;46.704;38.274;2023-06-22T00:16:05;20.57;73.77
75865;HTU21D;64510;46.704;38.274;2023-06-22T00:18:30;20.54;73.90
75865;HTU21D;64510;46.704;38.274;2023-06-22T00:20:58;20.45;73.66
75865;HTU21D;64510;46.704;38.274;2023-06-22T00:23:25;20.41;73.69
75865;HTU21D;64510;46.704;38.274;2023-06-22T00:25:51;20.34;73.52
75865;HTU21D;64510;46.704;38.274;2023-06-22T00:28:17;20.30;73.55
75865;HTU21D;64510;46.704;38.274;2023-06-22T00:30:43;20.27;73.41
75865;HTU21D;64510;46.704;38.274;2023-06-22T00:33:09;20.28;73.43
75865;HTU21D;64510;46.704;38.274;2023-06-22T00:35:35;20.22;73.39
75865;HTU21D;64510;46.704;38.274;2023-06-22T00:38:01;20.18;73.14
75865;HTU21D;64510;46.704;38.274;2023-06-22T00:40:28;20.15;73.27
75865;HTU21D;64510;46.704;38.274;2023-06-22T00:42:54;20.10;72.96
75865;HTU21D;64510;46.704;38.274;2023-06-22T00:45:22;20.05;73.28
75865;HTU21D;64510;46.704;38.274;2023-06-22T00:47:55;20.01;72.73
75865;HTU21D;64510;46.704;38.274;2023-06-22T00:50:27;19.90;72.67
75865;HTU21D;64510;46.704;38.274;2023-06-22T00:52:58;19.86;72.02
75865;HTU21D;64510;46.704;38.274;2023-06-22T00:55:25;19.80;71.58
75865;HTU21D;64510;46.704;38.274;2023-06-22T00:57:54;19.80;71.19
75865;HTU21D;64510;46.704;38.274;2023-06-22T01:00:25;19.76;70.98
75865;HTU21D;64510;46.704;38.274;2023-06-22T01:02:53;19.72;70.85
75865;HTU21D;64510;46.704;38.274;2023-06-22T01:05:20;19.71;70.35
75865;HTU21D;64510;46.704;38.274;2023-06-22T01:11:36;19.63;70.04
75865;HTU21D;64510;46.704;38.274;2023-06-22T01:13:41;19.58;70.00
75865;HTU21D;64510;46.704;38.274;2023-06-22T01:16:11;19.52;69.76
75865;HTU21D;64510;46.704;38.274;2023-06-22T01:18:41;19.45;69.80
75865;HTU21D;64510;46.704;38.274;2023-06-22T01:21:11;19.41;69.10
75865;HTU21D;64510;46.704;38.274;2023-06-22T01:28:53;19.38;67.51
75865;HTU21D;64510;46.704;38.274;2023-06-22T01:31:23;19.38;67.20
75865;HTU21D;64510;46.704;38.274;2023-06-22T01:33:55;19.38;67.24
75865;HTU21D;64510;46.704;38.274;2023-06-22T01:36:23;19.39;67.02
75865;HTU21D;64510;46.704;38.274;2023-06-22T01:38:50;19.42;66.44
75865;HTU21D;64510;46.704;38.274;2023-06-22T01:41:19;19.43;66.01
75865;HTU21D;64510;46.704;38.274;2023-06-22T01:43:47;19.47;65.87
75865;HTU21D;64510;46.704;38.274;2023-06-22T01:46:14;19.54;64.77
75865;HTU21D;64510;46.704;38.274;2023-06-22T01:48:41;19.62;63.95
75865;HTU21D;64510;46.704;38.274;2023-06-22T01:51:07;19.66;63.63
75865;HTU21D;64510;46.704;38.274;2023-06-22T01:53:33;19.69;63.66
75865;HTU21D;64510;46.704;38.274;2023-06-22T01:55:59;19.73;63.71
75865;HTU21D;64510;46.704;38.274;2023-06-22T01:58:29;19.77;63.85
75865;HTU21D;64510;46.704;38.274;2023-06-22T02:01:13;19.91;63.53
75865;HTU21D;64510;46.704;38.274;2023-06-22T02:03:50;20.05;63.02
75865;HTU21D;64510;46.704;38.274;2023-06-22T02:06:33;20.19;62.29
75865;HTU21D;64510;46.704;38.274;2023-06-22T02:09:08;20.26;61.98
75865;HTU21D;64510;46.704;38.274;2023-06-22T02:11:37;20.34;61.68
75865;HTU21D;64510;46.704;38.274;2023-06-22T02:14:06;20.46;61.30
75865;HTU21D;64510;46.704;38.274;2023-06-22T02:16:32;20.57;61.34
75865;HTU21D;64510;46.704;38.274;2023-06-22T02:19:01;20.65;60.71
75865;HTU21D;64510;46.704;38.274;2023-06-22T02:21:29;20.72;60.40
75865;HTU21D;64510;46.704;38.274;2023-06-22T02:23:56;20.76;59.69
75865;HTU21D;64510;46.704;38.274;2023-06-22T02:26:24;20.79;59.29
75865;HTU21D;64510;46.704;38.274;2023-06-22T02:28:50;20.86;58.79
75865;HTU21D;64510;46.704;38.274;2023-06-22T02:31:17;20.92;58.50
75865;HTU21D;64510;46.704;38.274;2023-06-22T02:33:42;21.03;58.41
75865;HTU21D;64510;46.704;38.274;2023-06-22T02:36:09;21.16;58.16
75865;HTU21D;64510;46.704;38.274;2023-06-22T02:38:41;21.25;57.14
75865;HTU21D;64510;46.704;38.274;2023-06-22T02:41:16;21.35;57.20
75865;HTU21D;64510;46.704;38.274;2023-06-22T02:43:48;21.43;56.81
75865;HTU21D;64510;46.704;38.274;2023-06-22T02:46:14;21.53;56.13
75865;HTU21D;64510;46.704;38.274;2023-06-22T02:48:41;21.58;55.43
75865;HTU21D;64510;46.704;38.274;2023-06-22T02:51:08;21.65;55.42
75865;HTU21D;64510;46.704;38.274;2023-06-22T02:53:35;21.72;55.43
75865;HTU21D;64510;46.704;38.274;2023-06-22T02:56:02;21.77;55.03
75865;HTU21D;64510;46.704;38.274;2023-06-22T02:58:33;21.82;54.71
75865;HTU21D;64510;46.704;38.274;2023-06-22T03:01:07;21.90;54.29
75865;HTU21D;64510;46.704;38.274;2023-06-22T03:03:34;22.03;54.01
75865;HTU21D;64510;46.704;38.274;2023-06-22T03:06:00;22.17;53.97
75865;HTU21D;64510;46.704;38.274;2023-06-22T03:08:27;22.28;53.50
75865;HTU21D;64510;46.704;38.274;2023-06-22T03:10:55;22.39;53.49
75865;HTU21D;64510;46.704;38.274;2023-06-22T03:13:21;22.54;53.10
75865;HTU21D;64510;46.704;38.274;2023-06-22T03:15:47;22.62;53.18
75865;HTU21D;64510;46.704;38.274;2023-06-22T03:18:13;22.76;52.02
75865;HTU21D;64510;46.704;38.274;2023-06-22T03:20:38;22.84;51.72
75865;HTU21D;64510;46.704;38.274;2023-06-22T03:23:04;22.93;51.27
75865;HTU21D;64510;46.704;38.274;2023-06-22T03:25:32;22.77;50.95
75865;HTU21D;64510;46.704;38.274;2023-06-22T03:28:00;22.11;51.98
75865;HTU21D;64510;46.704;38.274;2023-06-22T03:30:27;21.46;53.92
75865;HTU21D;64510;46.704;38.274;2023-06-22T03:32:52;21.02;54.48
75865;HTU21D;64510;46.704;38.274;2023-06-22T03:35:18;20.75;55.24
75865;HTU21D;64510;46.704;38.274;2023-06-22T03:37:45;20.51;55.46
75865;HTU21D;64510;46.704;38.274;2023-06-22T03:40:12;20.57;56.03
75865;HTU21D;64510;46.704;38.274;2023-06-22T03:42:39;20.68;55.56
75865;HTU21D;64510;46.704;38.274;2023-06-22T03:45:05;20.62;55.71
75865;HTU21D;64510;46.704;38.274;2023-06-22T03:47:32;20.96;55.04
75865;HTU21D;64510;46.704;38.274;2023-06-22T03:49:58;21.39;54.50
75865;HTU21D;64510;46.704;38.274;2023-06-22T03:52:24;21.59;53.93
75865;HTU21D;64510;46.704;38.274;2023-06-22T03:54:51;21.92;52.95
75865;HTU21D;64510;46.704;38.274;2023-06-22T03:57:16;22.25;52.23
75865;HTU21D;64510;46.704;38.274;2023-06-22T03:59:42;22.60;51.43
75865;HTU21D;64510;46.704;38.274;2023-06-22T04:02:08;22.57;50.47
75865;HTU21D;64510;46.704;38.274;2023-06-22T04:04:34;22.82;50.50
75865;HTU21D;64510;46.704;38.274;2023-06-22T04:07:01;23.13;49.33
75865;HTU21D;64510;46.704;38.274;2023-06-22T04:09:26;23.30;49.53
75865;HTU21D;64510;46.704;38.274;2023-06-22T04:11:52;23.68;49.09
75865;HTU21D;64510;46.704;38.274;2023-06-22T04:14:18;23.87;48.41
75865;HTU21D;64510;46.704;38.274;2023-06-22T04:16:44;24.01;47.64
75865;HTU21D;64510;46.704;38.274;2023-06-22T04:19:10;24.13;47.55
75865;HTU21D;64510;46.704;38.274;2023-06-22T04:21:43;24.28;46.76
75865;HTU21D;64510;46.704;38.274;2023-06-22T04:24:10;24.31;46.31
75865;HTU21D;64510;46.704;38.274;2023-06-22T04:26:37;24.46;46.22
75865;HTU21D;64510;46.704;38.274;2023-06-22T04:29:04;24.54;46.05
75865;HTU21D;64510;46.704;38.274;2023-06-22T04:31:37;24.64;45.54
75865;HTU21D;64510;46.704;38.274;2023-06-22T04:34:05;24.71;44.76
75865;HTU21D;64510;46.704;38.274;2023-06-22T04:36:35;24.75;44.85
75865;HTU21D;64510;46.704;38.274;2023-06-22T04:39:10;24.83;44.13
75865;HTU21D;64510;46.704;38.274;2023-06-22T04:41:36;24.97;43.50
75865;HTU21D;64510;46.704;38.274;2023-06-22T04:44:16;25.03;43.09
75865;HTU21D;64510;46.704;38.274;2023-06-22T04:46:54;25.19;43.48
75865;HTU21D;64510;46.704;38.274;2023-06-22T04:49:26;25.33;42.97
75865;HTU21D;64510;46.704;38.274;2023-06-22T04:52:13;25.62;42.86
75865;HTU21D;64510;46.704;38.274;2023-06-22T04:54:40;25.63;42.44
75865;HTU21D;64510;46.704;38.274;2023-06-22T04:57:14;25.62;42.07
75865;HTU21D;64510;46.704;38.274;2023-06-22T04:59:40;25.62;41.92
75865;HTU21D;64510;46.704;38.274;2023-06-22T05:02:07;25.57;41.53
75865;HTU21D;64510;46.704;38.274;2023-06-22T05:04:34;25.64;41.16
75865;HTU21D;64510;46.704;38.274;2023-06-22T05:07:04;25.71;41.19
75865;HTU21D;64510;46.704;38.274;2023-06-22T05:09:31;25.80;40.66
75865;HTU21D;64510;46.704;38.274;2023-06-22T05:11:57;25.79;40.33
75865;HTU21D;64510;46.704;38.274;2023-06-22T05:14:23;25.74;40.28
75865;HTU21D;64510;46.704;38.274;2023-06-22T05:16:49;25.81;40.05
75865;HTU21D;64510;46.704;38.274;2023-06-22T05:19:17;25.81;39.93
75865;HTU21D;64510;46.704;38.274;2023-06-22T05:21:43;25.74;39.51
75865;HTU21D;64510;46.704;38.274;2023-06-22T05:24:09;25.91;40.11
75865;HTU21D;64510;46.704;38.274;2023-06-22T05:26:35;26.24;39.59
75865;HTU21D;64510;46.704;38.274;2023-06-22T05:29:02;26.41;39.20
75865;HTU21D;64510;46.704;38.274;2023-06-22T05:31:28;26.51;38.60
75865;HTU21D;64510;46.704;38.274;2023-06-22T05:33:55;26.47;38.33
75865;HTU21D;64510;46.704;38.274;2023-06-22T05:36:22;26.24;38.56
75865;HTU21D;64510;46.704;38.274;2023-06-22T05:38:52;25.96;39.82
75865;HTU21D;64510;46.704;38.274;2023-06-22T05:41:18;26.15;39.23
75865;HTU21D;64510;46.704;38.274;2023-06-22T05:43:44;26.26;39.20
75865;HTU21D;64510;46.704;38.274;2023-06-22T05:46:10;26.33;38.67
75865;HTU21D;64510;46.704;38.274;2023-06-22T05:48:36;26.31;38.60
75865;HTU21D;64510;46.704;38.274;2023-06-22T05:51:02;26.35;38.14
75865;HTU21D;64510;46.704;38.274;2023-06-22T05:53:28;26.48;38.36
75865;HTU21D;64510;46.704;38.274;2023-06-22T05:55:53;26.63;37.74
75865;HTU21D;64510;46.704;38.274;2023-06-22T05:58:19;26.67;37.69
75865;HTU21D;64510;46.704;38.274;2023-06-22T06:00:45;26.71;37.59
75865;HTU21D;64510;46.704;38.274;2023-06-22T06:03:12;26.75;37.08
75865;HTU21D;64510;46.704;38.274;2023-06-22T06:05:38;26.78;36.99
75865;HTU21D;64510;46.704;38.274;2023-06-22T06:08:05;26.86;36.53
75865;HTU21D;64510;46.704;38.274;2023-06-22T06:10:33;27.01;36.62
75865;HTU21D;64510;46.704;38.274;2023-06-22T06:12:59;27.09;36.38
75865;HTU21D;64510;46.704;38.274;2023-06-22T06:15:28;27.05;36.22
75865;HTU21D;64510;46.704;38.274;2023-06-22T06:17:54;27.02;35.98
75865;HTU21D;64510;46.704;38.274;2023-06-22T06:20:22;26.90;36.05
75865;HTU21D;64510;46.704;38.274;2023-06-22T06:22:48;26.90;36.02
75865;HTU21D;64510;46.704;38.274;2023-06-22T06:25:14;26.94;35.96
75865;HTU21D;64510;46.704;38.274;2023-06-22T06:27:49;26.89;35.51
75865;HTU21D;64510;46.704;38.274;2023-06-22T06:30:17;26.92;35.92
75865;HTU21D;64510;46.704;38.274;2023-06-22T06:32:44;27.00;35.90
75865;HTU21D;64510;46.704;38.274;2023-06-22T06:35:14;27.22;35.53
75865;HTU21D;64510;46.704;38.274;2023-06-22T06:37:45;27.29;35.29
75865;HTU21D;64510;46.704;38.274;2023-06-22T06:40:12;27.50;35.18
75865;HTU21D;64510;46.704;38.274;2023-06-22T06:42:41;27.55;34.26
75865;HTU21D;64510;46.704;38.274;2023-06-22T06:45:17;27.28;33.31
75865;HTU21D;64510;46.704;38.274;2023-06-22T06:47:44;27.10;33.55
75865;HTU21D;64510;46.704;38.274;2023-06-22T06:50:10;27.08;33.75
75865;HTU21D;64510;46.704;38.274;2023-06-22T06:52:36;27.04;33.84
75865;HTU21D;64510;46.704;38.274;2023-06-22T06:55:02;27.05;34.05
75865;HTU21D;64510;46.704;38.274;2023-06-22T06:57:30;26.98;34.26
75865;HTU21D;64510;46.704;38.274;2023-06-22T06:59:56;26.85;34.86
75865;HTU21D;64510;46.704;38.274;2023-06-22T07:02:23;27.04;34.69
75865;HTU21D;64510;46.704;38.274;2023-06-22T07:04:49;26.99;34.57
75865;HTU21D;64510;46.704;38.274;2023-06-22T07:07:16;26.99;34.57
75865;HTU21D;64510;46.704;38.274;2023-06-22T07:09:42;26.76;34.15
75865;HTU21D;64510;46.704;38.274;2023-06-22T07:12:08;26.68;34.24
75865;HTU21D;64510;46.704;38.274;2023-06-22T07:14:34;26.65;33.89
75865;HTU21D;64510;46.704;38.274;2023-06-22T07:17:00;26.52;34.36
75865;HTU21D;64510;46.704;38.274;2023-06-22T07:19:27;26.52;34.29
75865;HTU21D;64510;46.704;38.274;2023-06-22T07:21:54;26.35;34.52
75865;HTU21D;64510;46.704;38.274;2023-06-22T07:24:21;26.23;34.88
75865;HTU21D;64510;46.704;38.274;2023-06-22T07:26:47;26.28;34.76
75865;HTU21D;64510;46.704;38.274;2023-06-22T07:29:17;26.23;34.47
75865;HTU21D;64510;46.704;38.274;2023-06-22T07:31:43;26.23;34.38
75865;HTU21D;64510;46.704;38.274;2023-06-22T07:34:09;26.13;34.39
75865;HTU21D;64510;46.704;38.274;2023-06-22T07:36:35;25.96;34.22
75865;HTU21D;64510;46.704;38.274;2023-06-22T07:39:02;25.95;34.84
75865;HTU21D;64510;46.704;38.274;2023-06-22T07:41:29;25.99;34.81
75865;HTU21D;64510;46.704;38.274;2023-06-22T07:43:55;25.89;34.92
75865;HTU21D;64510;46.704;38.274;2023-06-22T07:46:22;25.93;35.11
75865;HTU21D;64510;46.704;38.274;2023-06-22T07:48:48;25.89;34.89
75865;HTU21D;64510;46.704;38.274;2023-06-22T07:51:14;25.80;34.93
75865;HTU21D;64510;46.704;38.274;2023-06-22T07:53:41;25.80;35.25
75865;HTU21D;64510;46.704;38.274;2023-06-22T07:56:09;25.79;35.35
75865;HTU21D;64510;46.704;38.274;2023-06-22T07:58:35;25.75;35.44
75865;HTU21D;64510;46.704;38.274;2023-06-22T08:01:01;25.76;35.73
75865;HTU21D;64510;46.704;38.274;2023-06-22T08:03:28;25.79;36.02
75865;HTU21D;64510;46.704;38.274;2023-06-22T08:05:53;25.84;35.53
75865;HTU21D;64510;46.704;38.274;2023-06-22T08:08:19;25.80;35.89
75865;HTU21D;64510;46.704;38.274;2023-06-22T08:10:45;25.84;35.50
75865;HTU21D;64510;46.704;38.274;2023-06-22T08:13:11;25.81;35.64
75865;HTU21D;64510;46.704;38.274;2023-06-22T08:15:37;25.77;36.05
75865;HTU21D;64510;46.704;38.274;2023-06-22T08:18:03;25.76;36.11
75865;HTU21D;64510;46.704;38.274;2023-06-22T08:20:29;25.83;35.89
75865;HTU21D;64510;46.704;38.274;2023-06-22T08:22:55;25.91;35.78
75865;HTU21D;64510;46.704;38.274;2023-06-22T08:25:23;25.76;35.68
75865;HTU21D;64510;46.704;38.274;2023-06-22T08:27:49;25.72;36.47
75865;HTU21D;64510;46.704;38.274;2023-06-22T08:30:15;25.87;36.43
75865;HTU21D;64510;46.704;38.274;2023-06-22T08:32:43;25.74;36.06
75865;HTU21D;64510;46.704;38.274;2023-06-22T08:35:09;25.58;36.25
75865;HTU21D;64510;46.704;38.274;2023-06-22T08:37:36;25.52;36.27
75865;HTU21D;64510;46.704;38.274;2023-06-22T08:40:04;25.52;36.18
75865;HTU21D;64510;46.704;38.274;2023-06-22T08:42:35;25.43;36.00
75865;HTU21D;64510;46.704;38.274;2023-06-22T08:45:00;25.28;35.70
75865;HTU21D;64510;46.704;38.274;2023-06-22T08:47:29;25.28;35.78
75865;HTU21D;64510;46.704;38.274;2023-06-22T08:49:55;25.30;35.79
75865;HTU21D;64510;46.704;38.274;2023-06-22T08:52:22;25.24;35.66
75865;HTU21D;64510;46.704;38.274;2023-06-22T08:54:49;25.21;36.06
75865;HTU21D;64510;46.704;38.274;2023-06-22T08:57:15;25.17;35.78
75865;HTU21D;64510;46.704;38.274;2023-06-22T08:59:42;25.10;36.24
75865;HTU21D;64510;46.704;38.274;2023-06-22T09:02:08;25.08;35.92
75865;HTU21D;64510;46.704;38.274;2023-06-22T09:04:34;25.04;35.44
75865;HTU21D;64510;46.704;38.274;2023-06-22T09:07:01;25.05;35.68
75865;HTU21D;64510;46.704;38.274;2023-06-22T09:09:27;25.08;35.64
75865;HTU21D;64510;46.704;38.274;2023-06-22T09:11:53;25.02;35.51
75865;HTU21D;64510;46.704;38.274;2023-06-22T09:14:18;25.02;35.34
75865;HTU21D;64510;46.704;38.274;2023-06-22T09:16:44;25.08;35.17
75865;HTU21D;64510;46.704;38.274;2023-06-22T09:19:10;24.94;35.11
75865;HTU21D;64510;46.704;38.274;2023-06-22T09:21:36;24.85;35.31
75865;HTU21D;64510;46.704;38.274;2023-06-22T09:24:03;25.06;35.74
75865;HTU21D;64510;46.704;38.274;2023-06-22T09:26:29;25.00;35.48
75865;HTU21D;64510;46.704;38.274;2023-06-22T09:28:55;24.87;35.40
75865;HTU21D;64510;46.704;38.274;2023-06-22T09:31:21;24.92;35.63
75865;HTU21D;64510;46.704;38.274;2023-06-22T09:33:53;25.09;35.60
75865;HTU21D;64510;46.704;38.274;2023-06-22T09:36:23;25.09;35.20
75865;HTU21D;64510;46.704;38.274;2023-06-22T09:38:49;25.00;35.20
75865;HTU21D;64510;46.704;38.274;2023-06-22T09:41:22;25.02;35.08
75865;HTU21D;64510;46.704;38.274;2023-06-22T09:43:48;24.89;35.31
75865;HTU21D;64510;46.704;38.274;2023-06-22T09:46:17;24.84;35.63
75865;HTU21D;64510;46.704;38.274;2023-06-22T09:48:43;24.91;35.60
75865;HTU21D;64510;46.704;38.274;2023-06-22T09:51:09;25.02;35.47
75865;HTU21D;64510;46.704;38.274;2023-06-22T09:53:35;24.92;35.02
75865;HTU21D;64510;46.704;38.274;2023-06-22T09:56:01;24.73;35.11
75865;HTU21D;64510;46.704;38.274;2023-06-22T09:58:27;24.63;35.48
75865;HTU21D;64510;46.704;38.274;2023-06-22T10:00:53;24.71;35.10
75865;HTU21D;64510;46.704;38.274;2023-06-22T10:03:20;24.74;34.82
75865;HTU21D;64510;46.704;38.274;2023-06-22T10:05:46;24.73;35.16
75865;HTU21D;64510;46.704;38.274;2023-06-22T10:08:12;24.80;35.11
75865;HTU21D;64510;46.704;38.274;2023-06-22T10:10:38;24.92;34.89
75865;HTU21D;64510;46.704;38.274;2023-06-22T10:13:09;24.87;34.51
75865;HTU21D;64510;46.704;38.274;2023-06-22T10:15:38;24.73;34.79
75865;HTU21D;64510;46.704;38.274;2023-06-22T10:18:04;24.70;35.14
75865;HTU21D;64510;46.704;38.274;2023-06-22T10:20:30;24.84;35.37
75865;HTU21D;64510;46.704;38.274;2023-06-22T10:22:56;24.97;35.29
75865;HTU21D;64510;46.704;38.274;2023-06-22T10:25:22;24.91;35.08
75865;HTU21D;64510;46.704;38.274;2023-06-22T10:27:48;24.88;35.17
75865;HTU21D;64510;46.704;38.274;2023-06-22T10:30:14;24.90;35.15
75865;HTU21D;64510;46.704;38.274;2023-06-22T10:32:42;24.94;34.96
75865;HTU21D;64510;46.704;38.274;2023-06-22T10:35:09;24.93;35.21
75865;HTU21D;64510;46.704;38.274;2023-06-22T10:37:45;24.87;35.15
75865;HTU21D;64510;46.704;38.274;2023-06-22T10:40:15;24.86;35.43
75865;HTU21D;64510;46.704;38.274;2023-06-22T10:42:41;24.93;35.09
75865;HTU21D;64510;46.704;38.274;2023-06-22T10:45:08;24.97;34.85
75865;HTU21D;64510;46.704;38.274;2023-06-22T10:47:34;25.04;34.67
75865;HTU21D;64510;46.704;38.274;2023-06-22T10:50:01;25.00;34.74
75865;HTU21D;64510;46.704;38.274;2023-06-22T10:52:27;25.06;34.92
75865;HTU21D;64510;46.704;38.274;2023-06-22T10:54:53;25.09;34.71
75865;HTU21D;64510;46.704;38.274;2023-06-22T10:57:19;25.15;34.83
75865;HTU21D;64510;46.704;38.274;2023-06-22T10:59:45;25.20;34.60
75865;HTU21D;64510;46.704;38.274;2023-06-22T11:02:11;25.21;34.42
75865;HTU21D;64510;46.704;38.274;2023-06-22T11:04:37;25.13;34.90
75865;HTU21D;64510;46.704;38.274;2023-06-22T11:07:03;25.16;34.83
75865;HTU21D;64510;46.704;38.274;2023-06-22T11:09:28;25.13;34.96
75865;HTU21D;64510;46.704;38.274;2023-06-22T11:11:55;25.13;34.69
75865;HTU21D;64510;46.704;38.274;2023-06-22T11:14:22;25.18;34.79
75865;HTU21D;64510;46.704;38.274;2023-06-22T11:16:48;25.18;34.53
75865;HTU21D;64510;46.704;38.274;2023-06-22T11:19:14;24.97;34.71
75865;HTU21D;64510;46.704;38.274;2023-06-22T11:21:40;24.95;34.96
75865;HTU21D;64510;46.704;38.274;2023-06-22T11:24:06;24.95;35.02
75865;HTU21D;64510;46.704;38.274;2023-06-22T11:26:32;24.99;35.16
75865;HTU21D;64510;46.704;38.274;2023-06-22T11:28:58;25.02;35.05
75865;HTU21D;64510;46.704;38.274;2023-06-22T11:31:24;25.01;35.09
75865;HTU21D;64510;46.704;38.274;2023-06-22T11:33:51;25.07;34.88
75865;HTU21D;64510;46.704;38.274;2023-06-22T11:36:17;25.10;34.73
75865;HTU21D;64510;46.704;38.274;2023-06-22T11:38:43;25.17;34.57
75865;HTU21D;64510;46.704;38.274;2023-06-22T11:41:10;25.16;33.94
75865;HTU21D;64510;46.704;38.274;2023-06-22T11:43:36;25.04;33.86
75865;HTU21D;64510;46.704;38.274;2023-06-22T11:46:03;25.01;33.56
75865;HTU21D;64510;46.704;38.274;2023-06-22T11:48:30;25.05;33.81
75865;HTU21D;64510;46.704;38.274;2023-06-22T11:50:56;25.10;33.32
75865;HTU21D;64510;46.704;38.274;2023-06-22T11:53:24;25.07;33.38
75865;HTU21D;64510;46.704;38.274;2023-06-22T11:55:50;25.18;33.69
75865;HTU21D;64510;46.704;38.274;2023-06-22T11:58:17;25.21;33.44
75865;HTU21D;64510;46.704;38.274;2023-06-22T12:00:42;25.25;33.22
75865;HTU21D;64510;46.704;38.274;2023-06-22T12:03:08;25.23;33.34
75865;HTU21D;64510;46.704;38.274;2023-06-22T12:05:35;25.25;32.67
75865;HTU21D;64510;46.704;38.274;2023-06-22T12:08:01;25.18;32.55
75865;HTU21D;64510;46.704;38.274;2023-06-22T12:10:27;25.21;32.23
75865;HTU21D;64510;46.704;38.274;2023-06-22T12:12:55;25.20;32.10
75865;HTU21D;64510;46.704;38.274;2023-06-22T12:15:23;25.19;31.88
75865;HTU21D;64510;46.704;38.274;2023-06-22T12:17:49;25.17;32.19
75865;HTU21D;64510;46.704;38.274;2023-06-22T12:20:15;25.19;32.41
75865;HTU21D;64510;46.704;38.274;2023-06-22T12:22:41;25.13;32.21
75865;HTU21D;64510;46.704;38.274;2023-06-22T12:25:08;25.08;32.73
75865;HTU21D;64510;46.704;38.274;2023-06-22T12:27:35;25.06;32.36
75865;HTU21D;64510;46.704;38.274;2023-06-22T12:30:01;25.04;32.55
75865;HTU21D;64510;46.704;38.274;2023-06-22T12:32:27;25.04;32.51
75865;HTU21D;64510;46.704;38.274;2023-06-22T12:34:53;25.07;32.35
75865;HTU21D;64510;46.704;38.274;2023-06-22T12:37:19;25.09;32.22
75865;HTU21D;64510;46.704;38.274;2023-06-22T12:39:45;25.15;32.31
75865;HTU21D;64510;46.704;38.274;2023-06-22T12:42:11;25.20;32.27
75865;HTU21D;64510;46.704;38.274;2023-06-22T12:44:38;25.19;32.10
75865;HTU21D;64510;46.704;38.274;2023-06-22T12:47:05;25.15;32.25
75865;HTU21D;64510;46.704;38.274;2023-06-22T12:49:31;25.16;32.66
75865;HTU21D;64510;46.704;38.274;2023-06-22T12:51:57;25.19;32.85
75865;HTU21D;64510;46.704;38.274;2023-06-22T12:54:23;25.14;33.00
75865;HTU21D;64510;46.704;38.274;2023-06-22T12:56:52;25.06;33.21
75865;HTU21D;64510;46.704;38.274;2023-06-22T12:59:18;25.15;33.04
75865;HTU21D;64510;46.704;38.274;2023-06-22T13:01:44;25.06;32.87
75865;HTU21D;64510;46.704;38.274;2023-06-22T13:04:11;25.06;33.05
75865;HTU21D;64510;46.704;38.274;2023-06-22T13:06:43;25.07;32.99
75865;HTU21D;64510;46.704;38.274;2023-06-22T13:09:10;25.17;32.79
75865;HTU21D;64510;46.704;38.274;2023-06-22T13:11:36;25.14;33.20
75865;HTU21D;64510;46.704;38.274;2023-06-22T13:14:02;25.18;33.44
75865;HTU21D;64510;46.704;38.274;2023-06-22T13:16:28;25.17;33.05
75865;HTU21D;64510;46.704;38.274;2023-06-22T13:18:54;25.04;32.84
75865;HTU21D;64510;46.704;38.274;2023-06-22T13:21:20;25.03;32.84
75865;HTU21D;64510;46.704;38.274;2023-06-22T13:23:45;25.03;32.83
75865;HTU21D;64510;46.704;38.274;2023-06-22T13:26:11;25.01;32.57
75865;HTU21D;64510;46.704;38.274;2023-06-22T13:28:37;24.97;32.74
75865;HTU21D;64510;46.704;38.274;2023-06-22T13:31:03;25.01;32.70
75865;HTU21D;64510;46.704;38.274;2023-06-22T13:33:29;25.08;32.79
75865;HTU21D;64510;46.704;38.274;2023-06-22T13:35:55;25.07;32.80
75865;HTU21D;64510;46.704;38.274;2023-06-22T13:38:21;25.08;32.80
75865;HTU21D;64510;46.704;38.274;2023-06-22T13:40:48;25.05;32.78
75865;HTU21D;64510;46.704;38.274;2023-06-22T13:43:14;24.99;33.12
75865;HTU21D;64510;46.704;38.274;2023-06-22T13:45:41;25.01;32.93
75865;HTU21D;64510;46.704;38.274;2023-06-22T13:48:07;24.97;32.89
75865;HTU21D;64510;46.704;38.274;2023-06-22T13:50:33;24.90;32.59
75865;HTU21D;64510;46.704;38.274;2023-06-22T13:52:59;24.87;32.87
75865;HTU21D;64510;46.704;38.274;2023-06-22T13:55:25;24.88;32.86
75865;HTU21D;64510;46.704;38.274;2023-06-22T13:57:52;24.93;32.80
75865;HTU21D;64510;46.704;38.274;2023-06-22T14:00:18;24.88;32.40
75865;HTU21D;64510;46.704;38.274;2023-06-22T14:02:44;24.84;32.79
75865;HTU21D;64510;46.704;38.274;2023-06-22T14:05:10;24.92;32.93
75865;HTU21D;64510;46.704;38.274;2023-06-22T14:07:37;24.93;33.15
75865;HTU21D;64510;46.704;38.274;2023-06-22T14:10:03;24.95;33.19
75865;HTU21D;64510;46.704;38.274;2023-06-22T14:12:30;24.97;33.03
75865;HTU21D;64510;46.704;38.274;2023-06-22T14:14:55;24.91;33.18
75865;HTU21D;64510;46.704;38.274;2023-06-22T14:17:23;24.94;33.15
75865;HTU21D;64510;46.704;38.274;2023-06-22T14:19:51;24.88;33.23
75865;HTU21D;64510;46.704;38.274;2023-06-22T14:22:22;24.85;33.51
75865;HTU21D;64510;46.704;38.274;2023-06-22T14:24:48;24.84;33.19
75865;HTU21D;64510;46.704;38.274;2023-06-22T14:27:14;24.77;33.20
75865;HTU21D;64510;46.704;38.274;2023-06-22T14:29:40;24.71;33.50
75865;HTU21D;64510;46.704;38.274;2023-06-22T14:32:07;24.69;33.60
75865;HTU21D;64510;46.704;38.274;2023-06-22T14:34:33;24.72;33.48
75865;HTU21D;64510;46.704;38.274;2023-06-22T14:37:03;24.77;33.62
75865;HTU21D;64510;46.704;38.274;2023-06-22T14:39:29;24.77;33.60
75865;HTU21D;64510;46.704;38.274;2023-06-22T14:41:55;24.75;33.73
75865;HTU21D;64510;46.704;38.274;2023-06-22T14:44:21;24.70;33.56
75865;HTU21D;64510;46.704;38.274;2023-06-22T14:46:47;24.65;33.48
75865;HTU21D;64510;46.704;38.274;2023-06-22T14:49:13;24.60;33.30
75865;HTU21D;64510;46.704;38.274;2023-06-22T14:51:39;24.55;33.44
75865;HTU21D;64510;46.704;38.274;2023-06-22T14:54:05;24.54;33.53
75865;HTU21D;64510;46.704;38.274;2023-06-22T14:56:31;24.54;33.49
75865;HTU21D;64510;46.704;38.274;2023-06-22T14:58:57;24.50;33.60
75865;HTU21D;64510;46.704;38.274;2023-06-22T15:01:23;24.54;33.79
75865;HTU21D;64510;46.704;38.274;2023-06-22T15:03:49;24.55;33.85
75865;HTU21D;64510;46.704;38.274;2023-06-22T15:06:15;24.55;33.76
75865;HTU21D;64510;46.704;38.274;2023-06-22T15:08:41;24.55;33.60
75865;HTU21D;64510;46.704;38.274;2023-06-22T15:11:08;24.55;33.31